createdAt,value
2022-12-27T00:00:59.000Z,0
2022-12-27T00:02:15.000Z,0
2022-12-27T00:03:31.000Z,0
2022-12-27T00:04:47.000Z,0
2022-12-27T00:06:04.000Z,0
2022-12-27T00:07:20.000Z,0
2022-12-27T00:08:36.000Z,0
2022-12-27T00:09:53.368Z,0
2022-12-27T00:11:09.000Z,0
2022-12-27T00:12:25.000Z,0
2022-12-27T00:13:41.000Z,0
2022-12-27T00:14:58.000Z,0
2022-12-27T00:16:13.000Z,0
2022-12-27T00:17:29.000Z,0
2022-12-27T00:18:46.000Z,0
2022-12-27T00:20:02.000Z,0
2022-12-27T00:21:18.000Z,0
2022-12-27T00:22:35.000Z,0
2022-12-27T00:23:51.593Z,0
2022-12-27T00:25:07.000Z,0
2022-12-27T00:26:23.000Z,0
2022-12-27T00:27:40.000Z,0
2022-12-27T00:28:55.000Z,0
2022-12-27T00:30:10.000Z,0
2022-12-27T00:31:26.000Z,0
2022-12-27T00:32:41.642Z,0
2022-12-27T00:33:57.000Z,0
2022-12-27T00:35:13.000Z,0
2022-12-27T00:36:30.000Z,0
2022-12-27T00:37:46.000Z,0
2022-12-27T00:39:02.000Z,0
2022-12-27T00:40:19.000Z,0
2022-12-27T00:41:35.000Z,0
2022-12-27T00:42:51.000Z,0
2022-12-27T00:44:07.000Z,0
2022-12-27T00:45:24.000Z,0
2022-12-27T00:46:40.000Z,0
2022-12-27T00:47:56.000Z,0
2022-12-27T00:49:12.413Z,0
2022-12-27T00:50:28.000Z,0
2022-12-27T00:51:44.000Z,0
2022-12-27T00:53:01.000Z,0
2022-12-27T00:54:17.000Z,0
2022-12-27T00:55:33.000Z,0
2022-12-27T00:56:49.000Z,0
2022-12-27T00:58:06.000Z,0
2022-12-27T00:59:22.000Z,0
2022-12-27T01:00:38.000Z,0
2022-12-27T01:01:55.288Z,0
2022-12-27T01:03:11.000Z,0
2022-12-27T01:04:27.000Z,0
2022-12-27T01:05:42.000Z,0
2022-12-27T01:06:59.000Z,0
2022-12-27T01:08:15.000Z,0
2022-12-27T01:09:31.000Z,0
2022-12-27T01:10:48.000Z,0
2022-12-27T01:12:04.000Z,0
2022-12-27T01:13:20.000Z,0
2022-12-27T01:14:36.000Z,0
2022-12-27T01:15:53.000Z,0
2022-12-27T01:17:09.000Z,0
2022-12-27T01:18:26.060Z,0
2022-12-27T01:19:42.000Z,0
2022-12-27T01:20:58.000Z,0
2022-12-27T01:22:14.000Z,0
2022-12-27T01:23:30.000Z,0
2022-12-27T01:24:45.000Z,0
2022-12-27T01:26:00.000Z,0
2022-12-27T01:27:17.000Z,0
2022-12-27T01:28:33.000Z,0
2022-12-27T01:29:48.899Z,0
2022-12-27T01:31:04.000Z,0
2022-12-27T01:32:21.000Z,0
2022-12-27T01:33:37.000Z,0
2022-12-27T01:34:53.000Z,0
2022-12-27T01:36:10.000Z,0
2022-12-27T01:37:26.000Z,0
2022-12-27T01:38:42.872Z,0
2022-12-27T01:39:58.000Z,0
2022-12-27T01:41:15.000Z,0
2022-12-27T01:42:31.000Z,0
2022-12-27T01:43:48.036Z,0
2022-12-27T01:45:04.000Z,0
2022-12-27T01:46:19.000Z,0
2022-12-27T01:47:35.898Z,0
2022-12-27T01:48:51.000Z,0
2022-12-27T01:50:08.486Z,0
2022-12-27T01:51:23.000Z,0
2022-12-27T01:52:38.000Z,0
2022-12-27T01:53:55.000Z,0
2022-12-27T01:55:10.000Z,0
2022-12-27T01:56:25.000Z,0
2022-12-27T01:57:42.000Z,0
2022-12-27T01:58:58.000Z,0
2022-12-27T02:00:14.000Z,0
2022-12-27T02:01:30.000Z,0
2022-12-27T02:02:47.000Z,0
2022-12-27T02:04:03.000Z,0
2022-12-27T02:05:20.028Z,0
2022-12-27T02:06:36.000Z,0
2022-12-27T02:07:52.000Z,0
2022-12-27T02:09:08.000Z,0
2022-12-27T02:10:24.000Z,0
2022-12-27T02:11:41.000Z,0
2022-12-27T02:12:56.000Z,0
2022-12-27T02:14:12.000Z,0
2022-12-27T02:15:29.000Z,0
2022-12-27T02:16:45.000Z,0
2022-12-27T02:18:01.000Z,0
2022-12-27T02:19:17.000Z,0
2022-12-27T02:20:34.000Z,0
2022-12-27T02:21:50.000Z,0
2022-12-27T02:23:06.000Z,0
2022-12-27T02:24:23.000Z,0
2022-12-27T02:25:39.000Z,0
2022-12-27T02:26:55.000Z,0
2022-12-27T02:28:11.000Z,0
2022-12-27T02:29:27.000Z,0
2022-12-27T02:30:43.814Z,0
2022-12-27T02:31:59.000Z,0
2022-12-27T02:33:16.000Z,0
2022-12-27T02:34:32.000Z,0
2022-12-27T02:35:48.000Z,0
2022-12-27T02:37:05.000Z,0
2022-12-27T02:38:21.529Z,0
2022-12-27T02:39:37.000Z,0
2022-12-27T02:40:52.000Z,0
2022-12-27T02:42:08.000Z,0
2022-12-27T02:43:24.000Z,0
2022-12-27T02:44:41.039Z,0
2022-12-27T02:45:56.000Z,0
2022-12-27T02:47:11.000Z,0
2022-12-27T02:48:27.000Z,0
2022-12-27T02:49:43.000Z,0
2022-12-27T02:51:00.000Z,0
2022-12-27T02:52:16.000Z,0
2022-12-27T02:53:32.000Z,0
2022-12-27T02:54:49.000Z,0
2022-12-27T02:56:05.000Z,0
2022-12-27T02:57:21.930Z,0
2022-12-27T02:58:37.000Z,0
2022-12-27T02:59:54.518Z,0
2022-12-27T03:01:10.000Z,0
2022-12-27T03:02:26.000Z,0
2022-12-27T03:03:42.000Z,0
2022-12-27T03:04:58.000Z,0
2022-12-27T03:06:14.000Z,0
2022-12-27T03:07:31.000Z,0
2022-12-27T03:08:47.000Z,0
2022-12-27T03:10:03.000Z,0
2022-12-27T03:11:19.000Z,0
2022-12-27T03:12:36.000Z,0
2022-12-27T03:13:52.000Z,0
2022-12-27T03:15:08.000Z,0
2022-12-27T03:16:25.000Z,0
2022-12-27T03:17:41.000Z,0
2022-12-27T03:18:56.000Z,0
2022-12-27T03:20:11.000Z,0
2022-12-27T03:21:28.451Z,0
2022-12-27T03:22:44.000Z,0
2022-12-27T03:23:59.000Z,0
2022-12-27T03:25:15.000Z,0
2022-12-27T03:26:31.000Z,0
2022-12-27T03:27:47.000Z,0
2022-12-27T03:29:03.000Z,0
2022-12-27T03:30:20.000Z,0
2022-12-27T03:31:36.000Z,0
2022-12-27T03:32:52.000Z,0
2022-12-27T03:34:09.406Z,0
2022-12-27T03:35:25.681Z,0
2022-12-27T03:36:41.000Z,0
2022-12-27T03:37:58.000Z,0
2022-12-27T03:39:14.559Z,0
2022-12-27T03:40:30.000Z,0
2022-12-27T03:41:45.000Z,0
2022-12-27T03:43:02.000Z,0
2022-12-27T03:44:18.000Z,0
2022-12-27T03:45:34.000Z,0
2022-12-27T03:46:51.000Z,0
2022-12-27T03:48:07.000Z,0
2022-12-27T03:49:23.000Z,0
2022-12-27T03:50:39.000Z,0
2022-12-27T03:51:56.000Z,0
2022-12-27T03:53:12.000Z,0
2022-12-27T03:54:28.000Z,0
2022-12-27T03:55:45.000Z,0
2022-12-27T03:57:01.000Z,0
2022-12-27T03:58:16.000Z,0
2022-12-27T03:59:33.194Z,0
2022-12-27T04:00:49.000Z,0
2022-12-27T04:02:05.000Z,0
2022-12-27T04:03:21.000Z,0
2022-12-27T04:04:38.000Z,0
2022-12-27T04:05:54.000Z,0
2022-12-27T04:07:10.000Z,0
2022-12-27T04:08:26.000Z,0
2022-12-27T04:09:43.000Z,0
2022-12-27T04:10:59.000Z,0
2022-12-27T04:12:16.062Z,0
2022-12-27T04:13:32.000Z,0
2022-12-27T04:14:47.000Z,0
2022-12-27T04:16:03.000Z,0
2022-12-27T04:17:19.000Z,0
2022-12-27T04:18:36.000Z,0
2022-12-27T04:19:52.822Z,0
2022-12-27T04:21:08.000Z,0
2022-12-27T04:22:25.000Z,0
2022-12-27T04:23:41.000Z,0
2022-12-27T04:24:57.937Z,0
2022-12-27T04:26:13.000Z,0
2022-12-27T04:27:30.000Z,0
2022-12-27T04:28:46.000Z,0
2022-12-27T04:30:02.000Z,0
2022-12-27T04:31:18.000Z,0
2022-12-27T04:32:34.000Z,0
2022-12-27T04:33:50.000Z,0
2022-12-27T04:35:07.000Z,0
2022-12-27T04:36:23.000Z,0
2022-12-27T04:37:39.000Z,0
2022-12-27T04:38:55.000Z,0
2022-12-27T04:40:12.000Z,0
2022-12-27T04:41:28.000Z,0
2022-12-27T04:42:44.000Z,0
2022-12-27T04:44:01.000Z,0
2022-12-27T04:45:17.000Z,0
2022-12-27T04:46:33.000Z,0
2022-12-27T04:47:48.000Z,0
2022-12-27T04:49:05.000Z,0
2022-12-27T04:50:21.724Z,0
2022-12-27T04:51:38.052Z,0
2022-12-27T04:52:54.000Z,0
2022-12-27T04:54:10.000Z,0
2022-12-27T04:55:26.000Z,0
2022-12-27T04:56:42.000Z,0
2022-12-27T04:57:59.000Z,0
2022-12-27T04:59:15.000Z,0
2022-12-27T05:00:31.000Z,0
2022-12-27T05:01:48.000Z,0
2022-12-27T05:03:04.612Z,0
2022-12-27T05:04:19.000Z,0
2022-12-27T05:05:35.000Z,0
2022-12-27T05:06:52.000Z,0
2022-12-27T05:08:08.000Z,0
2022-12-27T05:09:24.000Z,0
2022-12-27T05:10:41.000Z,0
2022-12-27T05:11:57.000Z,0
2022-12-27T05:13:13.000Z,0
2022-12-27T05:14:29.000Z,0
2022-12-27T05:15:46.000Z,0
2022-12-27T05:17:02.806Z,0
2022-12-27T05:18:18.000Z,0
2022-12-27T05:19:35.000Z,0
2022-12-27T05:20:50.000Z,0
2022-12-27T05:22:05.000Z,0
2022-12-27T05:23:21.000Z,0
2022-12-27T05:24:37.000Z,0
2022-12-27T05:25:52.000Z,0
2022-12-27T05:27:08.196Z,0
2022-12-27T05:28:24.480Z,0
2022-12-27T05:29:40.000Z,0
2022-12-27T05:30:56.000Z,0
2022-12-27T05:32:13.000Z,0
2022-12-27T05:33:29.000Z,0
2022-12-27T05:34:45.000Z,0
2022-12-27T05:36:01.000Z,0
2022-12-27T05:37:18.000Z,0
2022-12-27T05:38:34.000Z,0
2022-12-27T05:39:50.000Z,0
2022-12-27T05:41:07.379Z,0
2022-12-27T05:42:23.000Z,0
2022-12-27T05:43:38.000Z,0
2022-12-27T05:44:54.283Z,0
2022-12-27T05:46:10.000Z,0
2022-12-27T05:47:26.000Z,0
2022-12-27T05:48:42.000Z,0
2022-12-27T05:49:59.000Z,0
2022-12-27T05:51:15.000Z,0
2022-12-27T05:52:31.000Z,0
2022-12-27T05:53:48.000Z,0
2022-12-27T05:55:04.000Z,0
2022-12-27T05:56:20.000Z,0
2022-12-27T05:57:36.000Z,0
2022-12-27T05:58:53.000Z,0
2022-12-27T06:00:09.000Z,0
2022-12-27T06:01:24.000Z,0
2022-12-27T06:02:41.000Z,0
2022-12-27T06:03:57.000Z,0
2022-12-27T06:05:14.097Z,0
2022-12-27T06:06:30.178Z,0
2022-12-27T06:07:46.000Z,0
2022-12-27T06:09:02.000Z,0
2022-12-27T06:10:18.000Z,0
2022-12-27T06:11:35.000Z,0
2022-12-27T06:12:51.000Z,0
2022-12-27T06:14:07.000Z,0
2022-12-27T06:15:23.000Z,0
2022-12-27T06:16:40.000Z,0
2022-12-27T06:17:55.000Z,0
2022-12-27T06:19:11.000Z,0
2022-12-27T06:20:28.000Z,0
2022-12-27T06:21:44.000Z,0
2022-12-27T06:23:00.921Z,0
2022-12-27T06:24:16.000Z,0
2022-12-27T06:25:33.000Z,0
2022-12-27T06:26:49.000Z,0
2022-12-27T06:28:06.096Z,0
2022-12-27T06:29:22.000Z,0
2022-12-27T06:30:38.000Z,0
2022-12-27T06:33:11.251Z,0
2022-12-27T06:34:26.000Z,0
2022-12-27T06:35:42.000Z,0
2022-12-27T06:36:58.000Z,0
2022-12-27T06:38:15.000Z,0
2022-12-27T06:39:31.000Z,0
2022-12-27T06:40:47.000Z,0
2022-12-27T06:42:04.000Z,0
2022-12-27T06:43:20.000Z,0
2022-12-27T06:45:52.000Z,0
2022-12-27T06:47:09.000Z,0
2022-12-27T06:48:25.000Z,0
2022-12-27T06:49:41.000Z,0
2022-12-27T06:50:57.000Z,0
2022-12-27T06:52:13.000Z,1
2022-12-27T06:53:29.000Z,1
2022-12-27T06:54:45.000Z,1
2022-12-27T06:56:02.000Z,1
2022-12-27T06:57:18.000Z,0
2022-12-27T06:58:34.000Z,1
2022-12-27T06:59:50.000Z,1
2022-12-27T07:01:07.000Z,0
2022-12-27T07:02:23.000Z,0
2022-12-27T07:03:39.872Z,0
2022-12-27T07:04:55.000Z,0
2022-12-27T07:06:12.000Z,0
2022-12-27T07:07:27.000Z,0
2022-12-27T07:08:43.000Z,2
2022-12-27T07:09:59.000Z,1
2022-12-27T07:11:16.000Z,2
2022-12-27T07:12:32.835Z,3
2022-12-27T07:13:48.936Z,4
2022-12-27T07:15:04.000Z,5
2022-12-27T07:16:21.000Z,6
2022-12-27T07:17:37.000Z,6
2022-12-27T07:18:53.000Z,8
2022-12-27T07:20:09.000Z,20
2022-12-27T07:21:26.336Z,21
2022-12-27T07:22:42.561Z,18
2022-12-27T07:23:57.000Z,21
2022-12-27T07:25:13.000Z,24
2022-12-27T07:26:30.000Z,40
2022-12-27T07:27:46.000Z,43
2022-12-27T07:29:02.000Z,43
2022-12-27T07:30:18.000Z,53
2022-12-27T07:31:34.000Z,76
2022-12-27T07:32:51.000Z,86
2022-12-27T07:34:07.000Z,100
2022-12-27T07:35:23.000Z,103
2022-12-27T07:36:39.000Z,128
2022-12-27T07:37:56.000Z,146
2022-12-27T07:39:12.000Z,164
2022-12-27T07:40:27.000Z,177
2022-12-27T07:41:43.000Z,186
2022-12-27T07:43:00.000Z,201
2022-12-27T07:44:16.579Z,214
2022-12-27T07:45:32.000Z,228
2022-12-27T07:46:48.000Z,237
2022-12-27T07:48:05.000Z,254
2022-12-27T07:49:21.000Z,273
2022-12-27T07:50:37.000Z,293
2022-12-27T07:51:53.000Z,279
2022-12-27T07:53:09.000Z,283
2022-12-27T07:54:26.000Z,412
2022-12-27T07:55:42.000Z,403
2022-12-27T07:56:57.000Z,504
2022-12-27T07:58:13.000Z,497
2022-12-27T07:59:30.000Z,421
2022-12-27T08:00:46.645Z,297
2022-12-27T08:02:02.000Z,296
2022-12-27T08:03:18.000Z,469
2022-12-27T08:04:35.000Z,456
2022-12-27T08:05:51.000Z,556
2022-12-27T08:07:07.812Z,520
2022-12-27T08:08:22.000Z,751
2022-12-27T08:09:38.000Z,335
2022-12-27T08:10:54.000Z,329
2022-12-27T08:12:09.000Z,679
2022-12-27T08:13:24.000Z,847
2022-12-27T08:14:41.000Z,521
2022-12-27T08:15:57.000Z,587
2022-12-27T08:17:13.000Z,846
2022-12-27T08:18:29.000Z,559
2022-12-27T08:19:45.000Z,1107
2022-12-27T08:21:02.000Z,1037
2022-12-27T08:22:18.000Z,947
2022-12-27T08:23:34.000Z,994
2022-12-27T08:24:50.000Z,1230
2022-12-27T08:27:23.000Z,1394
2022-12-27T08:28:39.000Z,1246
2022-12-27T08:29:54.000Z,1276
2022-12-27T08:31:11.000Z,1208
2022-12-27T08:32:27.000Z,1446
2022-12-27T08:33:43.000Z,1437
2022-12-27T08:34:59.000Z,1666
2022-12-27T08:36:16.000Z,1075
2022-12-27T08:37:32.000Z,2009
2022-12-27T08:38:48.000Z,1375
2022-12-27T08:40:04.000Z,1392
2022-12-27T08:41:20.000Z,1774
2022-12-27T08:42:37.000Z,1522
2022-12-27T08:43:53.000Z,1273
2022-12-27T08:45:09.000Z,1650
2022-12-27T08:46:24.000Z,1656
2022-12-27T08:47:41.000Z,2341
2022-12-27T08:48:57.000Z,2107
2022-12-27T08:50:13.000Z,1871
2022-12-27T08:52:45.000Z,2096
2022-12-27T08:54:00.000Z,2414
2022-12-27T08:55:15.000Z,2234
2022-12-27T08:56:31.000Z,2225
2022-12-27T08:57:48.000Z,2650
2022-12-27T08:59:03.000Z,2529
2022-12-27T09:00:18.000Z,2500
2022-12-27T09:01:34.000Z,2619
2022-12-27T09:02:51.000Z,2768
2022-12-27T09:04:07.000Z,2445
2022-12-27T09:05:23.000Z,2676
2022-12-27T09:06:39.000Z,2444
2022-12-27T09:07:56.000Z,2553
2022-12-27T09:09:12.000Z,2444
2022-12-27T09:10:28.000Z,3150
2022-12-27T09:11:44.000Z,2322
2022-12-27T09:13:00.000Z,3486
2022-12-27T09:14:17.000Z,2365
2022-12-27T09:15:33.000Z,2513
2022-12-27T09:16:48.919Z,3901
2022-12-27T09:18:04.000Z,3321
2022-12-27T09:19:21.000Z,2392
2022-12-27T09:20:37.000Z,4049
2022-12-27T09:21:53.000Z,3977
2022-12-27T09:23:09.000Z,3687
2022-12-27T09:24:26.000Z,3050
2022-12-27T09:25:41.000Z,5077
2022-12-27T09:26:56.000Z,3211
2022-12-27T09:28:12.000Z,3792
2022-12-27T09:29:29.000Z,5687
2022-12-27T09:30:45.000Z,3691
2022-12-27T09:32:00.000Z,6645
2022-12-27T09:33:15.000Z,4939
2022-12-27T09:34:32.000Z,4061
2022-12-27T09:35:48.000Z,4730
2022-12-27T09:37:04.000Z,2595
2022-12-27T09:38:20.000Z,989
2022-12-27T09:39:36.000Z,3423
2022-12-27T09:40:53.000Z,1295
2022-12-27T09:42:09.000Z,1041
2022-12-27T09:43:25.000Z,3047
2022-12-27T09:44:41.000Z,2477
2022-12-27T09:45:58.000Z,2987
2022-12-27T09:47:14.000Z,4276
2022-12-27T09:48:30.000Z,1331
2022-12-27T09:49:45.000Z,3067
2022-12-27T09:51:02.000Z,2912
2022-12-27T09:52:18.000Z,1303
2022-12-27T09:53:34.785Z,423
2022-12-27T09:56:07.000Z,3191
2022-12-27T09:57:23.000Z,1912
2022-12-27T09:58:39.000Z,550
2022-12-27T09:59:54.000Z,2162
2022-12-27T10:01:11.212Z,1895
2022-12-27T10:02:27.000Z,2670
2022-12-27T10:03:43.000Z,1343
2022-12-27T10:04:59.000Z,1393
2022-12-27T10:06:15.000Z,2206
2022-12-27T10:07:32.374Z,2602
2022-12-27T10:08:48.000Z,1453
2022-12-27T10:10:04.000Z,986
2022-12-27T10:11:20.000Z,545
2022-12-27T10:12:37.000Z,644
2022-12-27T10:13:53.000Z,750
2022-12-27T10:15:09.000Z,829
2022-12-27T10:16:25.045Z,830
2022-12-27T10:17:41.000Z,399
2022-12-27T10:18:57.000Z,360
2022-12-27T10:20:13.000Z,2415
2022-12-27T10:21:29.000Z,1321
2022-12-27T10:22:45.000Z,923
2022-12-27T10:24:02.000Z,1109
2022-12-27T10:25:18.000Z,1059
2022-12-27T10:26:34.000Z,732
2022-12-27T10:27:50.000Z,1006
2022-12-27T10:29:07.000Z,579
2022-12-27T10:30:23.000Z,467
2022-12-27T10:31:39.821Z,1090
2022-12-27T10:32:54.000Z,635
2022-12-27T10:34:11.000Z,903
2022-12-27T10:35:27.000Z,614
2022-12-27T10:36:43.000Z,511
2022-12-27T10:37:59.000Z,1058
2022-12-27T10:39:16.246Z,718
2022-12-27T10:40:32.000Z,1010
2022-12-27T10:41:48.000Z,321
2022-12-27T10:43:04.000Z,1484
2022-12-27T10:44:20.000Z,1830
2022-12-27T10:46:53.000Z,1282
2022-12-27T10:48:09.000Z,2953
2022-12-27T10:49:24.000Z,2875
2022-12-27T10:51:57.000Z,1123
2022-12-27T10:53:13.000Z,1179
2022-12-27T10:54:29.000Z,774
2022-12-27T10:55:46.000Z,1005
2022-12-27T10:57:02.000Z,1358
2022-12-27T10:58:18.000Z,398
2022-12-27T10:59:34.000Z,1089
2022-12-27T11:00:50.000Z,2681
2022-12-27T11:02:07.000Z,824
2022-12-27T11:03:23.000Z,1382
2022-12-27T11:04:39.932Z,6506
2022-12-27T11:05:54.000Z,2866
2022-12-27T11:07:11.415Z,4253
2022-12-27T11:08:27.000Z,3066
2022-12-27T11:09:43.000Z,1270
2022-12-27T11:10:59.000Z,80508
2022-12-27T11:12:16.000Z,79732
2022-12-27T11:13:32.000Z,59126
2022-12-27T11:14:48.000Z,5671
2022-12-27T11:16:05.046Z,4819
2022-12-27T11:17:21.000Z,7599
2022-12-27T11:18:37.000Z,3009
2022-12-27T11:19:53.000Z,1455
2022-12-27T11:21:09.000Z,819
2022-12-27T11:22:25.000Z,1246
2022-12-27T11:24:57.000Z,8538
2022-12-27T11:26:13.000Z,3977
2022-12-27T11:27:29.000Z,15024
2022-12-27T11:28:46.000Z,21906
2022-12-27T11:30:02.000Z,5231
2022-12-27T11:31:18.000Z,8836
2022-12-27T11:32:34.000Z,2109
2022-12-27T11:33:51.000Z,6637
2022-12-27T11:35:07.000Z,57701
2022-12-27T11:36:23.831Z,4517
2022-12-27T11:37:39.000Z,5823
2022-12-27T11:38:55.000Z,1707
2022-12-27T11:40:11.000Z,3107
2022-12-27T11:41:27.000Z,2264
2022-12-27T11:42:43.000Z,3713
2022-12-27T11:43:59.000Z,16470
2022-12-27T11:45:16.000Z,9224
2022-12-27T11:46:32.692Z,7320
2022-12-27T11:47:48.000Z,5389
2022-12-27T11:49:04.000Z,3679
2022-12-27T11:50:21.000Z,7183
2022-12-27T11:51:37.000Z,4971
2022-12-27T11:52:53.000Z,4274
2022-12-27T11:54:09.000Z,4723
2022-12-27T11:55:25.000Z,7509
2022-12-27T11:56:41.000Z,4684
2022-12-27T11:57:57.000Z,5830
2022-12-27T11:59:13.000Z,5902
2022-12-27T12:00:30.000Z,4856
2022-12-27T12:01:46.000Z,6371
2022-12-27T12:03:02.765Z,6898
2022-12-27T12:04:18.000Z,7923
2022-12-27T12:05:34.000Z,2796
2022-12-27T12:06:51.000Z,6763
2022-12-27T12:08:07.000Z,8631
2022-12-27T12:09:23.000Z,6661
2022-12-27T12:10:39.000Z,7329
2022-12-27T12:11:55.402Z,3499
2022-12-27T12:13:11.000Z,6021
2022-12-27T12:15:43.000Z,5143
2022-12-27T12:16:59.000Z,5073
2022-12-27T12:18:15.000Z,4898
2022-12-27T12:19:30.000Z,4539
2022-12-27T12:20:45.000Z,5637
2022-12-27T12:22:02.000Z,8165
2022-12-27T12:23:18.000Z,4385
2022-12-27T12:24:34.000Z,5373
2022-12-27T12:25:50.000Z,6207
2022-12-27T12:27:07.000Z,6738
2022-12-27T12:28:23.000Z,6110
2022-12-27T12:29:39.000Z,5573
2022-12-27T12:30:55.000Z,5284
2022-12-27T12:32:12.000Z,6099
2022-12-27T12:33:28.000Z,5285
2022-12-27T12:34:44.000Z,4285
2022-12-27T12:36:00.000Z,6207
2022-12-27T12:37:16.000Z,5300
2022-12-27T12:38:32.000Z,5684
2022-12-27T12:39:48.000Z,5247
2022-12-27T12:41:04.000Z,3419
2022-12-27T12:42:20.000Z,4381
2022-12-27T12:43:37.000Z,5761
2022-12-27T12:44:53.000Z,6476
2022-12-27T12:46:09.000Z,6076
2022-12-27T12:47:25.000Z,3836
2022-12-27T12:48:42.000Z,2052
2022-12-27T12:49:58.000Z,4417
2022-12-27T12:51:14.000Z,3309
2022-12-27T12:53:47.000Z,3820
2022-12-27T12:55:02.000Z,4643
2022-12-27T12:56:18.000Z,1636
2022-12-27T12:57:34.000Z,3643
2022-12-27T12:58:51.000Z,4838
2022-12-27T13:00:07.000Z,4098
2022-12-27T13:01:23.000Z,4047
2022-12-27T13:02:39.000Z,4815
2022-12-27T13:03:55.000Z,4627
2022-12-27T13:05:12.447Z,4705
2022-12-27T13:06:28.000Z,4472
2022-12-27T13:07:44.000Z,3525
2022-12-27T13:09:00.000Z,2811
2022-12-27T13:10:17.000Z,3553
2022-12-27T13:11:32.000Z,3449
2022-12-27T13:12:48.000Z,1774
2022-12-27T13:14:05.094Z,3638
2022-12-27T13:15:21.000Z,3255
2022-12-27T13:16:37.000Z,2870
2022-12-27T13:17:53.000Z,2442
2022-12-27T13:19:09.000Z,1913
2022-12-27T13:20:25.000Z,1148
2022-12-27T13:21:42.461Z,1866
2022-12-27T13:22:58.000Z,1535
2022-12-27T13:24:14.000Z,2005
2022-12-27T13:25:30.000Z,3203
2022-12-27T13:26:47.416Z,2898
2022-12-27T13:28:02.000Z,3281
2022-12-27T13:29:18.000Z,3394
2022-12-27T13:31:51.372Z,3638
2022-12-27T13:33:07.588Z,3628
2022-12-27T13:34:23.000Z,3550
2022-12-27T13:35:39.000Z,3410
2022-12-27T13:36:56.000Z,2780
2022-12-27T13:38:12.000Z,2433
2022-12-27T13:39:28.000Z,2264
2022-12-27T13:40:45.012Z,2164
2022-12-27T13:42:00.000Z,2087
2022-12-27T13:43:17.483Z,2009
2022-12-27T13:44:33.000Z,1873
2022-12-27T13:45:48.000Z,2030
2022-12-27T13:47:04.000Z,2159
2022-12-27T13:48:20.000Z,1941
2022-12-27T13:49:35.000Z,2151
2022-12-27T13:50:51.000Z,2130
2022-12-27T13:52:07.000Z,1885
2022-12-27T13:53:24.000Z,1684
2022-12-27T13:54:40.000Z,1754
2022-12-27T13:55:56.000Z,2268
2022-12-27T13:57:12.000Z,1815
2022-12-27T13:58:28.000Z,1843
2022-12-27T13:59:43.619Z,1711
2022-12-27T14:00:59.000Z,1659
2022-12-27T14:02:15.000Z,1663
2022-12-27T14:03:32.000Z,1569
2022-12-27T14:04:48.000Z,1541
2022-12-27T14:06:04.000Z,1577
2022-12-27T14:07:20.000Z,1488
2022-12-27T14:08:36.000Z,1468
2022-12-27T14:09:53.000Z,1411
2022-12-27T14:11:09.000Z,1315
2022-12-27T14:12:25.000Z,1314
2022-12-27T14:13:41.000Z,1301
2022-12-27T14:14:57.000Z,1171
2022-12-27T14:16:13.000Z,1191
2022-12-27T14:17:29.000Z,1232
2022-12-27T14:18:45.000Z,1103
2022-12-27T14:20:02.000Z,1044
2022-12-27T14:22:34.000Z,1045
2022-12-27T14:23:50.000Z,1015
2022-12-27T14:25:07.000Z,994
2022-12-27T14:26:23.530Z,964
2022-12-27T14:27:39.747Z,941
2022-12-27T14:28:55.000Z,842
2022-12-27T14:30:11.000Z,753
2022-12-27T14:31:27.000Z,665
2022-12-27T14:32:43.000Z,702
2022-12-27T14:33:59.000Z,736
2022-12-27T14:35:15.000Z,741
2022-12-27T14:36:32.000Z,798
2022-12-27T14:37:48.000Z,785
2022-12-27T14:39:04.000Z,778
2022-12-27T14:40:20.000Z,722
2022-12-27T14:41:37.000Z,672
2022-12-27T14:42:53.000Z,683
2022-12-27T14:44:09.000Z,630
2022-12-27T14:45:25.000Z,481
2022-12-27T14:46:42.000Z,260
2022-12-27T14:47:57.000Z,178
2022-12-27T14:49:12.000Z,462
2022-12-27T14:50:27.000Z,706
2022-12-27T14:51:44.000Z,429
2022-12-27T14:53:00.000Z,407
2022-12-27T14:54:16.000Z,327
2022-12-27T14:55:32.000Z,272
2022-12-27T14:56:47.000Z,253
2022-12-27T14:58:03.000Z,324
2022-12-27T15:00:35.000Z,361
2022-12-27T15:01:51.000Z,353
2022-12-27T15:03:08.000Z,330
2022-12-27T15:04:24.660Z,293
2022-12-27T15:05:40.000Z,292
2022-12-27T15:06:56.000Z,283
2022-12-27T15:08:13.000Z,219
2022-12-27T15:09:29.000Z,144
2022-12-27T15:10:45.000Z,109
2022-12-27T15:12:01.000Z,131
2022-12-27T15:13:18.000Z,122
2022-12-27T15:14:33.000Z,117
2022-12-27T15:15:49.000Z,79
2022-12-27T15:17:06.006Z,82
2022-12-27T15:18:21.000Z,43
2022-12-27T15:19:38.000Z,81
2022-12-27T15:20:54.000Z,109
2022-12-27T15:22:10.000Z,97
2022-12-27T15:23:26.000Z,85
2022-12-27T15:24:43.000Z,71
2022-12-27T15:25:59.000Z,55
2022-12-27T15:27:15.000Z,48
2022-12-27T15:28:31.000Z,34
2022-12-27T15:29:48.000Z,19
2022-12-27T15:31:03.595Z,17
2022-12-27T15:32:19.000Z,18
2022-12-27T15:33:35.000Z,19
2022-12-27T15:34:52.000Z,18
2022-12-27T15:36:08.000Z,16
2022-12-27T15:37:24.769Z,20
2022-12-27T15:38:41.016Z,23
2022-12-27T15:39:56.000Z,22
2022-12-27T15:41:13.000Z,17
2022-12-27T15:42:29.000Z,13
2022-12-27T15:43:45.000Z,11
2022-12-27T15:45:01.000Z,9
2022-12-27T15:46:18.000Z,7
2022-12-27T15:47:33.000Z,5
2022-12-27T15:48:49.000Z,6
2022-12-27T15:51:22.000Z,4
2022-12-27T15:52:38.000Z,3
2022-12-27T15:53:54.000Z,3
2022-12-27T15:55:10.000Z,0
2022-12-27T15:56:27.000Z,0
2022-12-27T15:57:43.000Z,1
2022-12-27T15:58:59.000Z,1
2022-12-27T16:00:15.000Z,1
2022-12-27T16:01:32.000Z,0
2022-12-27T16:02:48.000Z,0
2022-12-27T16:04:03.000Z,0
2022-12-27T16:05:20.000Z,0
2022-12-27T16:06:36.000Z,0
2022-12-27T16:07:52.000Z,0
2022-12-27T16:09:08.000Z,0
2022-12-27T16:10:25.000Z,0
2022-12-27T16:11:41.000Z,0
2022-12-27T16:12:57.000Z,0
2022-12-27T16:14:14.000Z,0
2022-12-27T16:15:30.000Z,0
2022-12-27T16:16:46.000Z,0
2022-12-27T16:18:02.000Z,0
2022-12-27T16:19:19.000Z,0
2022-12-27T16:20:34.000Z,0
2022-12-27T16:21:50.000Z,0
2022-12-27T16:23:07.294Z,0
2022-12-27T16:24:23.000Z,0
2022-12-27T16:25:39.000Z,0
2022-12-27T16:26:55.000Z,0
2022-12-27T16:29:28.000Z,0
2022-12-27T16:32:01.000Z,0
2022-12-27T16:33:17.000Z,0
2022-12-27T16:34:33.000Z,0
2022-12-27T16:35:49.000Z,0
2022-12-27T16:37:05.490Z,0
2022-12-27T16:38:21.000Z,0
2022-12-27T16:39:37.000Z,0
2022-12-27T16:40:54.329Z,0
2022-12-27T16:42:10.000Z,0
2022-12-27T16:43:26.000Z,0
2022-12-27T16:44:42.000Z,0
2022-12-27T16:45:59.000Z,0
2022-12-27T16:47:15.000Z,0
2022-12-27T16:48:31.000Z,0
2022-12-27T16:49:48.335Z,0
2022-12-27T16:51:04.000Z,0
2022-12-27T16:52:20.000Z,0
2022-12-27T16:53:35.000Z,0
2022-12-27T16:54:52.000Z,0
2022-12-27T16:56:08.000Z,0
2022-12-27T16:57:24.000Z,0
2022-12-27T16:58:41.000Z,0
2022-12-27T16:59:57.000Z,0
2022-12-27T17:01:13.000Z,0
2022-12-27T17:02:29.000Z,0
2022-12-27T17:03:46.000Z,0
2022-12-27T17:05:02.000Z,0
2022-12-27T17:06:18.000Z,0
2022-12-27T17:07:35.384Z,0
2022-12-27T17:08:51.000Z,0
2022-12-27T17:10:06.000Z,0
2022-12-27T17:11:23.000Z,0
2022-12-27T17:12:39.000Z,0
2022-12-27T17:13:55.000Z,0
2022-12-27T17:15:11.000Z,0
2022-12-27T17:16:28.000Z,0
2022-12-27T17:17:44.000Z,0
2022-12-27T17:20:17.000Z,0
2022-12-27T17:21:33.000Z,0
2022-12-27T17:22:49.000Z,0
2022-12-27T17:24:05.000Z,0
2022-12-27T17:25:22.000Z,0
2022-12-27T17:26:37.000Z,0
2022-12-27T17:27:53.000Z,0
2022-12-27T17:29:10.000Z,0
2022-12-27T17:30:26.000Z,0
2022-12-27T17:32:58.000Z,0
2022-12-27T17:34:15.000Z,0
2022-12-27T17:35:31.000Z,0
2022-12-27T17:36:47.000Z,0
2022-12-27T17:38:04.000Z,0
2022-12-27T17:39:20.000Z,0
2022-12-27T17:40:36.000Z,0
2022-12-27T17:41:52.000Z,0
2022-12-27T17:43:08.000Z,0
2022-12-27T17:44:24.000Z,0
2022-12-27T17:45:40.000Z,0
2022-12-27T17:46:57.000Z,0
2022-12-27T17:48:13.000Z,0
2022-12-27T17:49:29.000Z,0
2022-12-27T17:50:45.000Z,0
2022-12-27T17:52:02.000Z,0
2022-12-27T17:53:18.000Z,0
2022-12-27T17:54:34.000Z,0
2022-12-27T17:55:51.000Z,0
2022-12-27T17:57:07.000Z,0
2022-12-27T17:58:23.961Z,0
2022-12-27T17:59:38.000Z,0
2022-12-27T18:02:11.000Z,0
2022-12-27T18:03:27.000Z,0
2022-12-27T18:04:44.000Z,0
2022-12-27T18:06:00.000Z,0
2022-12-27T18:07:16.000Z,0
2022-12-27T18:08:33.000Z,0
2022-12-27T18:09:49.565Z,0
2022-12-27T18:11:05.000Z,0
2022-12-27T18:12:21.000Z,0
2022-12-27T18:13:38.000Z,0
2022-12-27T18:14:54.000Z,0
2022-12-27T18:16:09.000Z,0
2022-12-27T18:17:26.000Z,0
2022-12-27T18:18:42.000Z,0
2022-12-27T18:19:58.000Z,0
2022-12-27T18:21:14.000Z,0
2022-12-27T18:22:31.000Z,0
2022-12-27T18:23:47.000Z,0